createdAt,value
2023-05-07T00:00:25.811Z,2.90
2023-05-07T00:02:53.461Z,2.97
2023-05-07T00:05:21.045Z,3.50
2023-05-07T00:07:48.756Z,3.22
2023-05-07T00:10:16.162Z,3.30
2023-05-07T00:12:43.392Z,2.95
2023-05-07T00:15:11.152Z,3.70
2023-05-07T00:17:38.780Z,3.20
2023-05-07T00:20:06.644Z,3.47
2023-05-07T00:22:34.462Z,2.80
2023-05-07T00:25:02.084Z,3.40
2023-05-07T00:27:34.160Z,4.10
2023-05-07T00:30:01.494Z,3.50
2023-05-07T00:32:34.975Z,3.38
2023-05-07T00:35:02.124Z,3.30
2023-05-07T00:37:32.147Z,3.67
2023-05-07T00:39:59.542Z,3.80
2023-05-07T00:42:26.754Z,3.47
2023-05-07T00:44:53.887Z,3.42
2023-05-07T00:47:21.008Z,3.58
2023-05-07T00:49:48.160Z,3.58
2023-05-07T00:52:18.018Z,3.40
2023-05-07T00:54:46.165Z,3.53
2023-05-07T00:57:13.545Z,3.10
2023-05-07T00:59:41.878Z,3.25
2023-05-07T01:02:09.329Z,3.55
2023-05-07T01:04:36.949Z,3.63
2023-05-07T01:07:05.668Z,3.40
2023-05-07T01:09:33.321Z,3.33
2023-05-07T01:12:00.722Z,3.40
2023-05-07T01:14:28.613Z,3.17
2023-05-07T01:16:55.888Z,3.30
2023-05-07T01:19:23.557Z,3.35
2023-05-07T01:21:52.376Z,3.40
2023-05-07T01:24:19.867Z,3.55
2023-05-07T01:26:47.016Z,3.45
2023-05-07T01:29:14.278Z,3.08
2023-05-07T01:31:44.134Z,3.72
2023-05-07T01:34:13.880Z,3.20
2023-05-07T01:36:43.743Z,3.70
2023-05-07T01:39:11.770Z,3.58
2023-05-07T01:41:38.912Z,3.17
2023-05-07T01:44:07.497Z,3.70
2023-05-07T01:46:35.472Z,3.80
2023-05-07T01:49:02.614Z,3.10
2023-05-07T01:51:29.757Z,3.50
2023-05-07T01:53:57.365Z,3.50
2023-05-07T01:56:25.066Z,3.55
2023-05-07T01:58:52.959Z,3.97
2023-05-07T02:01:20.319Z,3.75
2023-05-07T02:03:47.983Z,3.45
2023-05-07T02:06:15.283Z,3.60
2023-05-07T02:08:42.656Z,3.22
2023-05-07T02:11:09.806Z,3.78
2023-05-07T02:13:37.873Z,3.13
2023-05-07T02:16:07.870Z,3.80
2023-05-07T02:18:35.250Z,3.95
2023-05-07T02:21:02.534Z,3.10
2023-05-07T02:23:29.624Z,3.67
2023-05-07T02:25:56.771Z,3.33
2023-05-07T02:28:23.916Z,3.60
2023-05-07T02:30:51.742Z,3.97
2023-05-07T02:33:18.946Z,4.13
2023-05-07T02:35:46.210Z,4.35
2023-05-07T02:38:13.348Z,4.13
2023-05-07T02:40:40.840Z,4.15
2023-05-07T02:43:08.253Z,4.47
2023-05-07T02:45:35.452Z,3.80
2023-05-07T02:48:02.798Z,4.43
2023-05-07T02:50:30.034Z,3.85
2023-05-07T02:52:57.155Z,3.97
2023-05-07T02:55:24.365Z,4.00
2023-05-07T02:57:51.612Z,3.70
2023-05-07T03:00:20.622Z,3.58
2023-05-07T03:02:47.937Z,4.00
2023-05-07T03:05:15.540Z,3.95
2023-05-07T03:07:46.302Z,3.50
2023-05-07T03:10:13.529Z,4.40
2023-05-07T03:12:40.859Z,4.10
2023-05-07T03:15:09.262Z,3.60
2023-05-07T03:17:36.343Z,4.50
2023-05-07T03:20:03.727Z,3.92
2023-05-07T03:22:31.749Z,3.85
2023-05-07T03:24:58.952Z,4.50
2023-05-07T03:27:26.210Z,5.07
2023-05-07T03:29:53.344Z,4.72
2023-05-07T03:32:20.465Z,4.72
2023-05-07T03:34:47.524Z,4.60
2023-05-07T03:37:14.776Z,4.55
2023-05-07T03:39:41.984Z,4.60
2023-05-07T03:42:09.084Z,4.57
2023-05-07T03:44:37.396Z,4.47
2023-05-07T03:47:05.351Z,4.07
2023-05-07T03:49:32.597Z,4.28
2023-05-07T03:51:59.677Z,4.00
2023-05-07T03:54:26.862Z,3.53
2023-05-07T03:56:54.000Z,3.78
2023-05-07T03:59:21.086Z,4.05
2023-05-07T04:01:48.431Z,4.20
2023-05-07T04:04:16.253Z,3.78
2023-05-07T04:06:43.514Z,3.85
2023-05-07T04:09:10.644Z,3.55
2023-05-07T04:11:37.832Z,3.30
2023-05-07T04:14:04.992Z,3.38
2023-05-07T04:16:32.194Z,3.20
2023-05-07T04:18:59.389Z,3.30
2023-05-07T04:21:27.519Z,3.17
2023-05-07T04:23:54.619Z,3.67
2023-05-07T04:26:22.391Z,3.30
2023-05-07T04:28:49.537Z,3.53
2023-05-07T04:31:16.911Z,3.33
2023-05-07T04:33:44.060Z,3.28
2023-05-07T04:36:11.193Z,3.22
2023-05-07T04:38:38.457Z,3.10
2023-05-07T04:41:07.191Z,3.13
2023-05-07T04:43:34.318Z,2.70
2023-05-07T04:46:01.785Z,3.22
2023-05-07T04:48:30.116Z,2.40
2023-05-07T04:50:57.381Z,2.50
2023-05-07T04:53:24.531Z,2.60
2023-05-07T04:55:59.534Z,3.05
2023-05-07T04:58:26.708Z,2.20
2023-05-07T05:00:53.915Z,2.10
2023-05-07T05:03:21.290Z,2.50
2023-05-07T05:05:51.096Z,2.10
2023-05-07T05:08:18.407Z,2.30
2023-05-07T05:10:45.832Z,2.00
2023-05-07T05:13:14.050Z,2.17
2023-05-07T05:15:41.362Z,2.60
2023-05-07T05:18:08.729Z,2.22
2023-05-07T05:20:35.947Z,2.40
2023-05-07T05:23:03.065Z,2.38
2023-05-07T05:25:30.235Z,2.47
2023-05-07T05:27:57.692Z,2.13
2023-05-07T05:30:24.905Z,2.25
2023-05-07T05:32:52.210Z,1.90
2023-05-07T05:35:19.393Z,2.10
2023-05-07T05:37:46.600Z,1.90
2023-05-07T05:40:13.774Z,2.20
2023-05-07T05:42:41.153Z,2.17
2023-05-07T05:45:09.096Z,2.00
2023-05-07T05:47:36.354Z,2.10
2023-05-07T05:50:03.548Z,2.10
2023-05-07T05:52:33.217Z,1.85
2023-05-07T05:55:00.595Z,2.00
2023-05-07T05:57:28.788Z,1.70
2023-05-07T05:59:56.218Z,1.90
2023-05-07T06:02:23.597Z,1.50
2023-05-07T06:04:51.180Z,2.13
2023-05-07T06:07:18.266Z,2.20
2023-05-07T06:09:45.490Z,1.98
2023-05-07T06:12:13.552Z,2.00
2023-05-07T06:14:41.819Z,1.80
2023-05-07T06:17:09.088Z,2.10
2023-05-07T06:19:36.568Z,2.10
2023-05-07T06:22:03.723Z,1.75
2023-05-07T06:24:31.154Z,1.70
2023-05-07T06:26:59.615Z,1.80
2023-05-07T06:29:26.913Z,1.80
2023-05-07T06:31:55.120Z,1.83
2023-05-07T06:34:22.379Z,1.77
2023-05-07T06:36:49.513Z,2.08
2023-05-07T06:39:16.735Z,2.03
2023-05-07T06:41:43.803Z,1.90
2023-05-07T06:44:11.179Z,1.92
2023-05-07T06:46:38.380Z,2.10
2023-05-07T06:49:06.092Z,1.95
2023-05-07T06:51:33.279Z,1.80
2023-05-07T06:54:00.632Z,2.15
2023-05-07T06:56:27.731Z,2.35
2023-05-07T06:58:54.873Z,1.75
2023-05-07T07:01:22.100Z,1.90
2023-05-07T07:03:49.744Z,1.63
2023-05-07T07:06:16.920Z,1.95
2023-05-07T07:08:44.087Z,1.75
2023-05-07T07:11:11.686Z,1.25
2023-05-07T07:13:38.976Z,1.58
2023-05-07T07:16:06.350Z,1.30
2023-05-07T07:18:33.501Z,1.50
2023-05-07T07:21:00.992Z,1.52
2023-05-07T07:23:28.136Z,1.70
2023-05-07T07:25:55.192Z,1.67
2023-05-07T07:28:23.343Z,1.90
2023-05-07T07:30:50.912Z,1.92
2023-05-07T07:33:18.111Z,1.83
2023-05-07T07:35:45.242Z,1.58
2023-05-07T07:38:12.524Z,1.80
2023-05-07T07:40:40.518Z,1.70
2023-05-07T07:43:07.809Z,1.75
2023-05-07T07:45:35.998Z,1.63
2023-05-07T07:48:03.218Z,1.80
2023-05-07T07:50:43.432Z,1.63
2023-05-07T07:53:11.494Z,1.55
2023-05-07T07:55:41.884Z,1.48
2023-05-07T07:58:09.038Z,1.50
2023-05-07T08:00:36.271Z,1.48
2023-05-07T08:03:04.449Z,1.40
2023-05-07T08:05:31.928Z,1.20
2023-05-07T08:07:59.700Z,1.50
2023-05-07T08:10:26.864Z,1.60
2023-05-07T08:12:54.206Z,1.60
2023-05-07T08:15:21.393Z,1.60
2023-05-07T08:17:48.532Z,1.98
2023-05-07T08:20:16.085Z,1.85
2023-05-07T08:22:43.298Z,1.85
2023-05-07T08:25:10.975Z,1.50
2023-05-07T08:27:38.218Z,1.55
2023-05-07T08:30:06.060Z,1.40
2023-05-07T08:32:33.373Z,1.30
2023-05-07T08:35:01.098Z,1.45
2023-05-07T08:37:28.323Z,1.60
2023-05-07T08:39:55.644Z,1.40
2023-05-07T08:42:25.982Z,1.20
2023-05-07T08:44:54.581Z,1.35
2023-05-07T08:47:29.734Z,1.30
2023-05-07T08:49:57.004Z,1.50
2023-05-07T08:52:24.319Z,1.58
2023-05-07T08:54:51.493Z,1.50
2023-05-07T08:57:18.686Z,1.50
2023-05-07T08:59:45.919Z,1.40
2023-05-07T09:02:13.237Z,1.48
2023-05-07T09:04:40.622Z,1.52
2023-05-07T09:07:07.701Z,1.60
2023-05-07T09:09:35.178Z,1.30
2023-05-07T09:12:03.233Z,1.35
2023-05-07T09:14:31.458Z,1.63
2023-05-07T09:16:58.540Z,1.60
2023-05-07T09:19:26.781Z,1.60
2023-05-07T09:22:04.579Z,1.40
2023-05-07T09:24:36.014Z,1.50
2023-05-07T09:27:03.719Z,1.10
2023-05-07T09:29:36.154Z,1.17
2023-05-07T09:32:04.470Z,1.27
2023-05-07T09:34:32.195Z,1.13
2023-05-07T09:37:06.870Z,1.10
2023-05-07T09:39:48.252Z,1.35
2023-05-07T09:42:18.411Z,1.02
2023-05-07T09:44:48.358Z,1.20
2023-05-07T09:47:20.165Z,1.13
2023-05-07T09:49:49.444Z,1.00
2023-05-07T09:52:18.115Z,1.08
2023-05-07T09:54:48.294Z,1.20
2023-05-07T09:57:16.627Z,1.35
2023-05-07T09:59:45.188Z,1.50
2023-05-07T10:02:13.026Z,1.30
2023-05-07T10:04:41.614Z,1.58
2023-05-07T10:07:10.166Z,1.40
2023-05-07T10:09:39.812Z,1.50
2023-05-07T10:12:07.940Z,1.40
2023-05-07T10:14:35.720Z,1.48
2023-05-07T10:17:04.663Z,1.40
2023-05-07T10:19:34.181Z,1.30
2023-05-07T10:22:07.302Z,1.38
2023-05-07T10:24:38.124Z,1.30
2023-05-07T10:27:13.548Z,1.45
2023-05-07T10:29:53.278Z,1.20
2023-05-07T10:32:43.670Z,1.30
2023-05-07T10:35:20.415Z,1.10
2023-05-07T10:37:49.257Z,1.27
2023-05-07T10:40:18.866Z,1.40
2023-05-07T10:43:00.814Z,1.50
2023-05-07T10:45:29.390Z,1.40
2023-05-07T10:48:17.318Z,1.25
2023-05-07T10:51:22.788Z,1.30
2023-05-07T10:54:04.011Z,1.70
2023-05-07T10:56:31.352Z,1.50
2023-05-07T10:59:21.506Z,1.35
2023-05-07T11:01:57.149Z,1.27
2023-05-07T11:04:28.834Z,1.45
2023-05-07T11:07:08.152Z,1.40
2023-05-07T11:10:05.197Z,1.30
2023-05-07T11:12:42.204Z,1.35
2023-05-07T11:15:11.473Z,1.30
2023-05-07T11:17:56.400Z,1.40
2023-05-07T11:20:52.882Z,1.42
2023-05-07T11:23:38.427Z,1.48
2023-05-07T11:26:06.401Z,1.35
2023-05-07T11:28:41.399Z,1.45
2023-05-07T11:31:09.368Z,1.30
2023-05-07T11:33:37.626Z,1.42
2023-05-07T11:36:06.261Z,1.40
2023-05-07T11:38:37.512Z,1.60
2023-05-07T11:41:06.403Z,1.40
2023-05-07T11:43:34.196Z,1.42
2023-05-07T11:46:12.251Z,1.90
2023-05-07T11:48:40.074Z,1.10
2023-05-07T11:51:13.242Z,1.30
2023-05-07T11:56:13.331Z,1.55
2023-05-07T11:58:41.338Z,1.60
2023-05-07T12:01:13.844Z,1.50
2023-05-07T12:03:48.914Z,1.52
2023-05-07T12:06:18.367Z,1.52
2023-05-07T12:08:48.104Z,1.55
2023-05-07T12:11:19.486Z,1.60
2023-05-07T12:13:46.898Z,1.45
2023-05-07T12:16:14.210Z,1.60
2023-05-07T12:18:41.690Z,1.50
2023-05-07T12:21:09.050Z,1.63
2023-05-07T12:23:37.961Z,1.60
2023-05-07T12:26:07.378Z,2.08
2023-05-07T12:28:39.957Z,1.40
2023-05-07T12:31:08.146Z,1.20
2023-05-07T12:33:36.429Z,1.13
2023-05-07T12:36:09.078Z,1.50
2023-05-07T12:38:40.007Z,1.60
2023-05-07T12:41:08.960Z,1.50
2023-05-07T12:43:36.717Z,1.70
2023-05-07T12:46:08.367Z,1.80
2023-05-07T12:48:38.848Z,1.90
2023-05-07T12:51:07.953Z,1.65
2023-05-07T12:53:40.628Z,1.65
2023-05-07T12:56:07.906Z,1.48
2023-05-07T12:58:36.480Z,1.60
2023-05-07T13:01:10.974Z,1.70
2023-05-07T13:03:39.858Z,1.50
2023-05-07T13:06:11.681Z,2.13
2023-05-07T13:08:46.872Z,1.38
2023-05-07T13:11:14.378Z,1.10
2023-05-07T13:13:42.931Z,1.27
2023-05-07T13:16:12.048Z,1.35
2023-05-07T13:18:41.394Z,1.50
2023-05-07T13:21:09.024Z,1.42
2023-05-07T13:23:36.534Z,1.15
2023-05-07T13:26:08.649Z,1.20
2023-05-07T13:28:43.161Z,1.20
2023-05-07T13:31:10.611Z,1.15
2023-05-07T13:33:37.983Z,1.50
2023-05-07T13:36:06.710Z,1.60
2023-05-07T13:38:33.933Z,1.58
2023-05-07T13:41:01.283Z,1.48
2023-05-07T13:43:28.518Z,1.38
2023-05-07T13:45:55.864Z,1.52
2023-05-07T13:48:23.001Z,1.50
2023-05-07T13:50:50.128Z,1.48
2023-05-07T13:53:19.309Z,1.67
2023-05-07T13:55:46.643Z,1.58
2023-05-07T13:58:13.783Z,1.52
2023-05-07T14:00:41.534Z,1.40
2023-05-07T14:03:08.859Z,1.75
2023-05-07T14:05:36.976Z,1.88
2023-05-07T14:08:05.692Z,1.70
2023-05-07T14:10:35.790Z,1.70
2023-05-07T14:13:03.328Z,1.90
2023-05-07T14:15:30.644Z,1.95
2023-05-07T14:17:59.385Z,1.60
2023-05-07T14:20:26.922Z,1.73
2023-05-07T14:22:54.438Z,1.83
2023-05-07T14:25:22.517Z,2.10
2023-05-07T14:27:51.876Z,1.77
2023-05-07T14:30:20.228Z,3.22
2023-05-07T14:32:47.439Z,2.10
2023-05-07T14:35:14.970Z,2.10
2023-05-07T14:37:42.406Z,2.10
2023-05-07T14:40:10.101Z,2.05
2023-05-07T14:42:37.481Z,1.90
2023-05-07T14:45:08.189Z,1.65
2023-05-07T14:47:35.652Z,1.67
2023-05-07T14:50:02.966Z,1.60
2023-05-07T14:52:31.408Z,1.85
2023-05-07T14:54:58.572Z,1.58
2023-05-07T14:57:25.819Z,1.50
2023-05-07T14:59:53.017Z,1.50
2023-05-07T15:02:21.316Z,1.70
2023-05-07T15:04:49.797Z,1.63
2023-05-07T15:07:17.019Z,1.60
2023-05-07T15:09:44.631Z,1.60
2023-05-07T15:12:12.714Z,1.80
2023-05-07T15:14:40.812Z,1.73
2023-05-07T15:17:08.615Z,1.60
2023-05-07T15:19:35.848Z,1.48
2023-05-07T15:22:03.886Z,1.67
2023-05-07T15:24:32.025Z,1.65
2023-05-07T15:26:59.373Z,1.77
2023-05-07T15:29:26.708Z,1.75
2023-05-07T15:31:54.007Z,1.60
2023-05-07T15:34:22.854Z,1.70
2023-05-07T15:36:50.137Z,1.60
2023-05-07T15:39:17.336Z,1.40
2023-05-07T15:41:44.384Z,2.65
2023-05-07T15:44:11.622Z,1.88
2023-05-07T15:46:39.133Z,1.55
2023-05-07T15:49:06.349Z,1.75
2023-05-07T15:51:35.941Z,1.58
2023-05-07T15:54:03.361Z,1.65
2023-05-07T15:56:33.913Z,1.90
2023-05-07T15:59:01.244Z,1.70
2023-05-07T16:01:29.464Z,1.65
2023-05-07T16:03:57.053Z,1.58
2023-05-07T16:06:24.304Z,1.73
2023-05-07T16:08:51.416Z,1.80
2023-05-07T16:11:18.753Z,2.00
2023-05-07T16:13:45.925Z,1.52
2023-05-07T16:16:13.334Z,1.75
2023-05-07T16:18:41.105Z,1.65
2023-05-07T16:21:08.284Z,1.60
2023-05-07T16:23:39.973Z,1.58
2023-05-07T16:26:07.189Z,1.50
2023-05-07T16:28:34.357Z,1.73
2023-05-07T16:31:01.941Z,1.67
2023-05-07T16:33:29.112Z,1.80
2023-05-07T16:35:56.221Z,1.50
2023-05-07T16:38:23.407Z,1.40
2023-05-07T16:40:50.536Z,1.70
2023-05-07T16:43:17.707Z,1.73
2023-05-07T16:45:46.647Z,1.77
2023-05-07T16:48:13.782Z,1.73
2023-05-07T16:50:41.834Z,1.90
2023-05-07T16:53:09.012Z,1.85
2023-05-07T16:55:38.941Z,1.80
2023-05-07T16:58:10.401Z,1.98
2023-05-07T17:00:50.181Z,1.83
2023-05-07T17:03:19.580Z,1.70
2023-05-07T17:05:47.206Z,1.85
2023-05-07T17:08:14.753Z,1.60
2023-05-07T17:10:42.327Z,1.85
2023-05-07T17:13:09.583Z,1.88
2023-05-07T17:15:37.059Z,1.92
2023-05-07T17:18:04.354Z,1.70
2023-05-07T17:20:31.506Z,1.73
2023-05-07T17:22:58.768Z,2.10
2023-05-07T17:25:26.007Z,1.73
2023-05-07T17:27:53.189Z,1.95
2023-05-07T17:30:21.046Z,1.50
2023-05-07T17:32:48.393Z,1.58
2023-05-07T17:35:15.934Z,1.70
2023-05-07T17:37:47.314Z,1.75
2023-05-07T17:40:15.620Z,1.50
2023-05-07T17:42:42.858Z,1.70
2023-05-07T17:45:10.722Z,1.80
2023-05-07T17:47:38.187Z,1.80
2023-05-07T17:50:10.755Z,2.10
2023-05-07T17:52:39.494Z,3.13
2023-05-07T17:55:09.332Z,1.90
2023-05-07T17:57:41.851Z,2.00
2023-05-07T18:00:11.766Z,2.20
2023-05-07T18:02:41.223Z,2.30
2023-05-07T18:05:09.540Z,2.30
2023-05-07T18:07:37.141Z,2.05
2023-05-07T18:10:04.858Z,2.00
2023-05-07T18:12:34.624Z,2.28
2023-05-07T18:15:03.006Z,1.98
2023-05-07T18:17:34.668Z,2.37
2023-05-07T18:20:02.742Z,2.55
2023-05-07T18:22:32.013Z,2.53
2023-05-07T18:24:59.424Z,2.70
2023-05-07T18:27:26.771Z,2.65
2023-05-07T18:29:53.898Z,3.00
2023-05-07T18:32:22.157Z,2.55
2023-05-07T18:34:49.902Z,2.78
2023-05-07T18:37:17.130Z,3.13
2023-05-07T18:39:44.257Z,2.95
2023-05-07T18:42:11.448Z,3.17
2023-05-07T18:44:38.951Z,2.65
2023-05-07T18:47:06.742Z,2.63
2023-05-07T18:49:34.521Z,3.00
2023-05-07T18:52:02.307Z,2.88
2023-05-07T18:54:29.560Z,3.10
2023-05-07T18:56:56.729Z,2.85
2023-05-07T18:59:23.871Z,3.42
2023-05-07T19:01:51.177Z,4.07
2023-05-07T19:04:19.061Z,2.90
2023-05-07T19:06:46.323Z,3.20
2023-05-07T19:09:13.496Z,3.03
2023-05-07T19:11:40.887Z,3.30
2023-05-07T19:14:08.415Z,3.00
2023-05-07T19:16:54.152Z,3.08
2023-05-07T19:19:21.357Z,3.45
2023-05-07T19:21:49.014Z,3.30
2023-05-07T19:24:16.655Z,3.42
2023-05-07T19:26:43.910Z,3.38
2023-05-07T19:29:18.089Z,4.85
2023-05-07T19:31:46.358Z,3.55
2023-05-07T19:34:14.259Z,3.88
2023-05-07T19:36:41.837Z,2.90
2023-05-07T19:39:09.082Z,3.38
2023-05-07T19:41:36.342Z,3.10
2023-05-07T19:44:03.560Z,3.30
2023-05-07T19:46:30.756Z,3.60
2023-05-07T19:48:57.969Z,3.10
2023-05-07T19:51:25.804Z,2.70
2023-05-07T19:53:53.132Z,2.72
2023-05-07T19:56:20.267Z,3.25
2023-05-07T19:58:47.511Z,2.80
2023-05-07T20:01:14.649Z,2.60
2023-05-07T20:03:42.202Z,2.72
2023-05-07T20:06:09.408Z,3.10
2023-05-07T20:08:36.516Z,2.95
2023-05-07T20:11:04.108Z,2.92
2023-05-07T20:13:31.536Z,2.90
2023-05-07T20:16:00.969Z,3.38
2023-05-07T20:18:29.209Z,2.72
2023-05-07T20:20:56.717Z,2.75
2023-05-07T20:23:24.657Z,3.28
2023-05-07T20:25:52.564Z,3.33
2023-05-07T20:28:19.789Z,3.22
2023-05-07T20:30:47.098Z,3.25
2023-05-07T20:33:14.201Z,3.63
2023-05-07T20:35:41.598Z,3.40
2023-05-07T20:38:08.958Z,3.25
2023-05-07T20:40:37.994Z,3.72
2023-05-07T20:43:08.569Z,3.75
2023-05-07T20:45:35.803Z,3.97
2023-05-07T20:48:03.237Z,4.32
2023-05-07T20:50:30.790Z,3.28
2023-05-07T20:52:57.997Z,3.67
2023-05-07T20:55:25.130Z,3.80
2023-05-07T20:57:52.309Z,3.80
2023-05-07T21:00:19.741Z,3.60
2023-05-07T21:02:47.032Z,4.32
2023-05-07T21:05:14.261Z,4.40
2023-05-07T21:07:41.397Z,3.95
2023-05-07T21:10:08.945Z,4.07
2023-05-07T21:12:36.329Z,3.67
2023-05-07T21:15:04.080Z,4.05
2023-05-07T21:17:35.288Z,4.13
2023-05-07T21:20:03.961Z,4.25
2023-05-07T21:22:33.666Z,3.78
2023-05-07T21:25:01.334Z,3.60
2023-05-07T21:27:32.257Z,5.10
2023-05-07T21:30:04.327Z,4.57
2023-05-07T21:32:34.230Z,4.30
2023-05-07T21:35:01.905Z,3.97
2023-05-07T21:37:33.984Z,4.65
2023-05-07T21:40:01.399Z,4.80
2023-05-07T21:42:32.609Z,5.55
2023-05-07T21:45:00.144Z,4.72
2023-05-07T21:47:27.712Z,5.20
2023-05-07T21:49:54.854Z,4.60
2023-05-07T21:52:26.027Z,4.97
2023-05-07T21:54:56.864Z,5.30
2023-05-07T21:57:24.059Z,5.95
2023-05-07T21:59:51.316Z,5.95
2023-05-07T22:02:18.544Z,5.28
2023-05-07T22:04:46.204Z,6.13
2023-05-07T22:07:15.636Z,5.97
2023-05-07T22:09:42.693Z,6.07
2023-05-07T22:12:09.817Z,5.75
2023-05-07T22:14:37.034Z,6.78
2023-05-07T22:17:04.132Z,5.63
2023-05-07T22:19:31.185Z,5.43
2023-05-07T22:21:58.317Z,6.63
2023-05-07T22:24:25.436Z,7.43
2023-05-07T22:26:52.672Z,6.20
2023-05-07T22:29:21.158Z,6.95
2023-05-07T22:31:48.278Z,6.35
2023-05-07T22:34:15.677Z,6.68
2023-05-07T22:36:42.926Z,6.63
2023-05-07T22:39:10.265Z,6.28
2023-05-07T22:41:37.913Z,6.53
2023-05-07T22:44:05.514Z,7.82
2023-05-07T22:46:32.827Z,5.45
2023-05-07T22:49:00.190Z,7.07
2023-05-07T22:51:27.503Z,6.45
2023-05-07T22:53:54.698Z,6.45
2023-05-07T22:56:22.427Z,7.22
2023-05-07T22:58:49.651Z,6.22
2023-05-07T23:01:18.863Z,6.75
2023-05-07T23:03:46.183Z,6.53
2023-05-07T23:06:13.654Z,6.50
2023-05-07T23:08:40.972Z,6.10
2023-05-07T23:11:08.083Z,6.60
2023-05-07T23:13:35.219Z,6.35
2023-05-07T23:16:02.417Z,6.00
2023-05-07T23:18:30.439Z,6.18
2023-05-07T23:20:57.643Z,6.28
2023-05-07T23:23:24.913Z,6.47
2023-05-07T23:25:53.016Z,5.80
2023-05-07T23:28:20.133Z,5.68
2023-05-07T23:30:47.297Z,5.80
2023-05-07T23:33:14.611Z,5.78
2023-05-07T23:35:42.910Z,5.82
2023-05-07T23:38:10.091Z,5.28
2023-05-07T23:40:37.294Z,5.18
2023-05-07T23:43:04.425Z,5.30
2023-05-07T23:45:31.464Z,5.72
2023-05-07T23:47:58.758Z,5.40
2023-05-07T23:50:26.269Z,5.43
2023-05-07T23:52:54.217Z,5.88
2023-05-07T23:55:21.417Z,5.30
2023-05-07T23:57:48.671Z,5.85
